Time;durP1;ratioP1;P1;durP2;ratioP2;P2;SDS_P1;SDS_P2;PMS_P1;PMS_P2;Temp;Humidity;BMP_temperature;BMP_pressure;BME280_temperature;BME280_humidity;BME280_pressure;Samples;Min_cycle;Max_cycle;Signal;HPM_P1;HPM_P2
2021/12/06 00:02:19;;;;;;;272.75;189.10;;;;;;;24.37;34.61;101664.34;5042833;28;20095;-43
2021/12/06 00:04:47;;;;;;;283.40;195.02;;;;;;;24.36;34.80;101668.69;5042582;28;20194;-43
2021/12/06 00:07:19;;;;;;;281.95;191.30;;;;;;;24.38;34.65;101667.00;5025174;28;20064;-43
2021/12/06 00:09:48;;;;;;;273.50;186.85;;;;;;;24.41;34.54;101671.41;5042953;28;20036;-43
2021/12/06 00:12:16;;;;;;;282.23;194.75;;;;;;;24.45;34.52;101668.00;5042556;28;20158;-43
2021/12/06 00:14:45;;;;;;;274.80;187.20;;;;;;;24.38;34.37;101668.75;5046122;28;20127;-43
2021/12/06 00:17:16;;;;;;;277.92;190.15;;;;;;;24.37;34.52;101677.47;5028469;28;20390;-43
2021/12/06 00:19:44;;;;;;;268.42;185.55;;;;;;;24.23;34.46;101659.69;5045476;28;20078;-46
2021/12/06 00:22:15;;;;;;;276.60;192.07;;;;;;;24.43;34.71;101670.63;5045400;28;20478;-42
2021/12/06 00:24:44;;;;;;;286.95;196.05;;;;;;;24.48;34.70;101667.22;5045270;28;20215;-43
2021/12/06 00:27:13;;;;;;;278.35;187.43;;;;;;;24.40;34.59;101667.91;5045861;28;20025;-44
2021/12/06 00:29:42;;;;;;;273.52;194.57;;;;;;;24.38;34.69;101674.00;5046414;28;20040;-43
2021/12/06 00:32:10;;;;;;;275.00;190.57;;;;;;;24.37;34.86;101675.72;5046444;28;20036;-43
2021/12/06 00:34:39;;;;;;;289.52;192.90;;;;;;;24.33;34.72;101675.63;5046264;28;20032;-43
2021/12/06 00:37:22;;;;;;;274.30;191.80;;;;;;;24.36;34.54;101679.19;5046108;28;20178;-43
2021/12/06 00:39:53;;;;;;;272.80;188.27;;;;;;;24.30;34.95;101678.16;5046128;28;20029;-42
2021/12/06 00:42:22;;;;;;;295.00;195.43;;;;;;;24.26;34.86;101682.47;5046093;28;20072;-43
2021/12/06 00:44:52;;;;;;;278.30;190.18;;;;;;;24.32;34.80;101685.22;5046052;28;20485;-43
2021/12/06 00:47:21;;;;;;;289.27;195.68;;;;;;;24.28;34.97;101679.00;5028461;28;20044;-43
2021/12/06 00:49:50;;;;;;;297.02;198.75;;;;;;;24.21;34.80;101673.59;5028252;28;20033;-43
2021/12/06 00:52:19;;;;;;;291.88;200.65;;;;;;;24.25;35.07;101673.69;5045632;28;20127;-42
2021/12/06 00:54:49;;;;;;;283.58;197.23;;;;;;;24.30;34.55;101679.06;5045470;28;20044;-43
2021/12/06 00:57:18;;;;;;;283.58;194.52;;;;;;;24.32;34.97;101685.22;5045528;28;20490;-42
2021/12/06 00:59:47;;;;;;;279.80;194.20;;;;;;;24.35;34.91;101680.03;5045209;28;20036;-42
2021/12/06 01:02:18;;;;;;;284.00;195.07;;;;;;;24.33;34.78;101680.84;5045273;28;20033;-42
2021/12/06 01:04:48;;;;;;;281.35;190.10;;;;;;;24.26;35.06;101677.22;5045506;28;20261;-44
2021/12/06 01:07:18;;;;;;;293.20;202.27;;;;;;;24.33;34.88;101657.25;5027474;28;20090;-43
2021/12/06 01:09:47;;;;;;;283.75;195.60;;;;;;;24.35;34.72;101656.44;5027548;28;20029;-43
2021/12/06 01:12:16;;;;;;;289.60;199.57;;;;;;;24.37;34.89;101649.50;5045206;28;20025;-43
2021/12/06 01:14:45;;;;;;;295.48;203.38;;;;;;;24.45;34.45;101640.91;5045016;28;20040;-43
2021/12/06 01:17:13;;;;;;;301.90;206.00;;;;;;;24.40;34.69;101635.56;5045106;28;20036;-43
2021/12/06 01:19:42;;;;;;;291.80;202.27;;;;;;;24.36;34.53;101642.47;5045028;28;20033;-42
2021/12/06 01:24:49;;;;;;;302.73;207.07;;;;;;;24.36;34.97;101638.97;5027362;28;20650;-42
2021/12/06 01:30:37;;;;;;;292.98;207.68;;;;;;;24.27;34.77;101630.03;5034425;28;20061;-43
2021/12/06 01:41:03;;;;;;;312.48;207.88;;;;;;;24.30;35.04;101633.59;5032988;28;20056;-43
2021/12/06 01:43:31;;;;;;;309.98;206.88;;;;;;;24.30;35.12;101629.25;5044757;28;20028;-43
2021/12/06 01:46:00;;;;;;;296.95;206.35;;;;;;;24.30;35.17;101629.25;5044341;28;20048;-43
2021/12/06 01:48:28;;;;;;;294.02;202.75;;;;;;;24.31;34.62;101632.72;5044437;28;20036;-43
2021/12/06 01:50:57;;;;;;;299.48;204.45;;;;;;;24.26;34.74;101632.63;5044763;28;20033;-43
2021/12/06 01:53:26;;;;;;;284.90;203.15;;;;;;;24.22;34.91;101636.94;5044524;28;20375;-44
2021/12/06 01:55:53;;;;;;;309.63;209.77;;;;;;;24.32;34.70;101637.13;5044273;28;20032;-43
2021/12/06 01:58:22;;;;;;;304.77;209.13;;;;;;;24.32;35.09;101637.13;5043982;28;20029;-43
2021/12/06 02:00:52;;;;;;;296.30;205.15;;;;;;;24.22;34.75;101643.91;5026166;28;20376;-43
2021/12/06 02:03:21;;;;;;;301.65;209.45;;;;;;;24.31;34.99;101659.84;5044394;28;20029;-44
2021/12/06 02:05:50;;;;;;;301.85;208.57;;;;;;;24.28;34.76;101660.66;5043913;28;20395;-43
2021/12/06 02:08:19;;;;;;;311.35;209.73;;;;;;;24.38;34.91;101668.75;5026496;28;20037;-43
2021/12/06 02:10:47;;;;;;;306.27;209.48;;;;;;;24.24;34.95;101671.03;5044565;28;20220;-43
2021/12/06 02:13:16;;;;;;;297.75;209.93;;;;;;;24.26;35.23;101666.72;5044182;28;20055;-43
2021/12/06 02:15:50;;;;;;;294.52;208.73;;;;;;;24.22;34.92;101659.63;5026556;28;20598;-43
2021/12/06 02:21:03;;;;;;;296.02;206.77;;;;;;;24.15;35.28;101642.00;5044201;28;20053;-43
2021/12/06 02:23:31;;;;;;;;;;;;;;;24.34;34.93;101638.94;5027503;28;20025;-43
2021/12/06 02:25:59;;;;;;;309.20;210.18;;;;;;;24.38;34.91;101638.16;5043780;28;19927;-43
2021/12/06 02:28:28;;;;;;;309.20;212.57;;;;;;;24.21;34.86;101634.25;5043776;28;20043;-43
2021/12/06 02:30:56;;;;;;;310.05;210.13;;;;;;;24.17;35.24;101635.94;5043828;28;20040;-43
2021/12/06 02:33:25;;;;;;;312.20;210.20;;;;;;;24.25;35.10;101633.50;5043738;28;20037;-43
2021/12/06 02:35:54;;;;;;;309.65;213.88;;;;;;;24.16;35.24;101630.69;5042727;28;20103;-43
2021/12/06 02:38:22;;;;;;;302.90;212.32;;;;;;;24.23;35.10;101632.56;5043798;28;20488;-43
2021/12/06 02:40:51;;;;;;;294.42;208.82;;;;;;;24.22;35.24;101633.41;5043680;28;20482;-42
2021/12/06 02:43:20;;;;;;;309.73;213.05;;;;;;;24.22;34.84;101630.78;5043452;28;20489;-42
2021/12/06 02:45:48;;;;;;;311.83;211.93;;;;;;;24.18;34.87;101634.19;5043652;28;20028;-43
2021/12/06 02:48:17;;;;;;;306.58;214.00;;;;;;;24.22;34.95;101634.31;5043158;28;20501;-43
2021/12/06 02:50:49;;;;;;;307.27;215.63;;;;;;;24.19;34.87;101636.88;5042704;28;20067;-44
2021/12/06 02:53:19;;;;;;;314.35;219.30;;;;;;;24.18;35.00;101640.34;5042661;28;20041;-43
2021/12/06 02:55:53;;;;;;;302.05;211.15;;;;;;;24.20;35.08;101642.97;5043534;28;20033;-44
2021/12/06 03:01:08;;;;;;;325.50;217.65;;;;;;;24.15;35.16;101634.16;5043719;28;20039;-44
2021/12/06 03:03:37;;;;;;;317.67;217.63;;;;;;;24.19;34.97;101630.72;5043501;28;20114;-43
2021/12/06 03:06:05;;;;;;;306.15;214.20;;;;;;;24.14;35.37;101627.13;5043522;28;20032;-43
2021/12/06 03:08:38;;;;;;;307.45;214.10;;;;;;;24.11;35.46;101620.97;5043293;28;20029;-44
2021/12/06 03:11:09;;;;;;;311.83;214.93;;;;;;;24.07;35.36;101606.00;5043443;28;20039;-43
2021/12/06 03:13:38;;;;;;;312.95;217.65;;;;;;;24.07;35.15;101594.66;5043113;28;20033;-43
2021/12/06 03:16:07;;;;;;;309.33;214.52;;;;;;;24.09;35.25;101592.94;5042835;28;20251;-44
2021/12/06 03:18:35;;;;;;;310.35;214.18;;;;;;;24.15;34.94;101592.19;5043108;28;20025;-43
2021/12/06 03:21:04;;;;;;;297.20;206.32;;;;;;;24.19;34.86;101587.06;5025340;28;20462;-44
2021/12/06 03:23:33;;;;;;;300.45;211.68;;;;;;;24.21;34.90;101582.72;5043119;28;20395;-44
2021/12/06 03:26:02;;;;;;;311.80;213.98;;;;;;;24.20;34.88;101574.81;5042976;28;20025;-44
2021/12/06 03:28:30;;;;;;;312.13;214.25;;;;;;;24.25;35.06;101574.06;5043217;28;20136;-44
2021/12/06 03:30:59;;;;;;;306.88;211.88;;;;;;;24.18;35.27;101572.19;5042882;28;20094;-43
2021/12/06 03:33:28;;;;;;;307.58;214.77;;;;;;;24.09;35.32;101562.38;5043217;28;20036;-42
2021/12/06 03:35:55;;;;;;;305.10;209.68;;;;;;;24.15;35.24;101558.13;5043366;28;20063;-42
2021/12/06 03:38:24;;;;;;;310.92;216.70;;;;;;;24.14;35.13;101545.88;5042721;28;20576;-43
2021/12/06 03:40:52;;;;;;;313.45;213.85;;;;;;;24.12;35.35;101536.22;5042665;28;20036;-42
2021/12/06 03:43:20;;;;;;;315.30;218.52;;;;;;;24.20;35.23;101532.88;5042750;28;20067;-42
2021/12/06 03:45:48;;;;;;;322.90;221.13;;;;;;;24.10;35.52;101540.56;5042943;28;20029;-42
2021/12/06 03:48:16;;;;;;;327.45;220.35;;;;;;;24.14;35.21;101543.25;5028070;28;20033;-42
2021/12/06 03:50:45;;;;;;;307.73;212.80;;;;;;;24.10;35.27;101537.94;5047125;28;20047;-42
2021/12/06 03:53:14;;;;;;;321.60;215.52;;;;;;;24.19;35.28;101532.00;5047054;28;20454;-43
2021/12/06 03:55:42;;;;;;;317.73;216.77;;;;;;;24.17;35.20;101533.69;5046505;28;20474;-42
2021/12/06 03:58:11;;;;;;;316.45;219.18;;;;;;;24.17;35.12;101549.44;5046431;28;20024;-41
2021/12/06 04:00:40;;;;;;;317.65;221.57;;;;;;;24.05;35.56;101551.78;5046259;28;20028;-42
2021/12/06 04:03:10;;;;;;;320.30;221.10;;;;;;;24.14;35.04;101551.09;5046876;28;20021;-42
2021/12/06 04:05:39;;;;;;;313.33;217.55;;;;;;;24.16;35.39;101552.03;5046711;28;20068;-42
2021/12/06 04:08:07;;;;;;;314.38;218.35;;;;;;;24.18;35.34;101552.91;5046811;28;20025;-42
2021/12/06 04:10:37;;;;;;;316.83;218.52;;;;;;;24.20;34.98;101543.34;5046630;28;20051;-43
2021/12/06 04:13:06;;;;;;;317.98;219.77;;;;;;;24.08;35.21;101537.00;5029134;28;20548;-42
2021/12/06 04:15:36;;;;;;;320.35;219.23;;;;;;;24.08;35.23;101526.53;5012256;28;20028;-42
2021/12/06 04:18:04;;;;;;;310.67;216.02;;;;;;;24.12;35.11;101525.75;5046079;28;20048;-42
2021/12/06 04:20:33;;;;;;;320.77;219.05;;;;;;;24.15;35.40;101518.81;5046039;28;20045;-42
2021/12/06 04:23:02;;;;;;;314.25;221.50;;;;;;;24.07;35.38;101519.50;5045877;28;20431;-42
2021/12/06 04:25:32;;;;;;;316.42;221.25;;;;;;;24.09;35.32;101523.06;5046372;28;20033;-42
2021/12/06 04:28:05;;;;;;;331.45;225.20;;;;;;;24.15;35.15;101513.56;5046119;28;20052;-42
2021/12/06 04:30:36;;;;;;;319.35;219.35;;;;;;;24.21;35.40;101524.16;5045992;28;20048;-43
2021/12/06 04:33:06;;;;;;;318.92;221.95;;;;;;;24.22;35.37;101532.06;5046371;28;20025;-42
2021/12/06 04:35:36;;;;;;;310.60;217.45;;;;;;;24.16;35.08;101534.56;5046175;28;20040;-42
2021/12/06 04:38:05;;;;;;;322.10;225.10;;;;;;;24.07;35.15;101529.13;5045494;28;20036;-43
2021/12/06 04:40:33;;;;;;;317.23;218.40;;;;;;;24.15;35.47;101531.91;5045771;28;20548;-43
2021/12/06 04:43:02;;;;;;;309.00;216.75;;;;;;;24.07;35.54;101511.66;5045925;28;20029;-43
2021/12/06 04:45:31;;;;;;;307.50;218.10;;;;;;;24.03;35.58;101515.03;5045485;28;20119;-42
2021/12/06 04:48:00;;;;;;;318.83;222.20;;;;;;;24.06;35.23;101511.63;5045646;28;20052;-43
2021/12/06 04:50:32;;;;;;;321.70;219.43;;;;;;;24.10;35.57;101508.19;5045940;28;21107;-42
2021/12/06 04:53:07;;;;;;;309.27;212.30;;;;;;;24.11;35.12;101502.09;5045978;28;20029;-42
2021/12/06 04:55:43;;;;;;;318.58;218.85;;;;;;;24.08;35.18;101505.56;5046170;28;20021;-43
2021/12/06 04:58:20;;;;;;;313.63;215.75;;;;;;;24.04;35.58;101503.72;5045168;28;20444;-42
2021/12/06 05:00:51;;;;;;;324.80;225.73;;;;;;;24.02;35.43;101501.94;5027688;28;20029;-42
2021/12/06 05:03:20;;;;;;;321.30;219.30;;;;;;;24.03;35.56;101501.06;5045760;28;20058;-42
2021/12/06 05:05:53;;;;;;;324.45;222.55;;;;;;;24.05;35.22;101505.50;5028078;28;20122;-43
2021/12/06 05:08:26;;;;;;;317.77;220.60;;;;;;;24.04;35.34;101502.84;5027325;28;20025;-42
2021/12/06 05:10:56;;;;;;;307.80;217.00;;;;;;;24.13;35.46;101500.41;5045712;28;20060;-43
2021/12/06 05:13:27;;;;;;;336.15;224.93;;;;;;;24.16;35.50;101479.50;5045515;28;20386;-43
2021/12/06 05:15:56;;;;;;;324.13;222.35;;;;;;;24.10;35.15;101481.97;5027378;28;20071;-43
2021/12/06 05:18:25;;;;;;;325.58;222.52;;;;;;;24.12;35.20;101491.66;5044632;28;20124;-43
2021/12/06 05:20:54;;;;;;;317.88;218.68;;;;;;;24.07;35.54;101501.16;5043550;28;20089;-42
2021/12/06 05:23:22;;;;;;;329.83;226.75;;;;;;;24.10;35.56;101487.22;5043899;28;20394;-42
2021/12/06 05:25:50;;;;;;;314.48;221.95;;;;;;;24.11;35.64;101489.00;5044866;28;20029;-41
2021/12/06 05:28:23;;;;;;;323.52;217.18;;;;;;;24.02;35.34;101484.44;5044843;28;20028;-42
2021/12/06 05:30:54;;;;;;;307.67;215.52;;;;;;;23.93;35.37;101473.75;5044950;28;20068;-43
2021/12/06 05:33:32;;;;;;;325.80;222.98;;;;;;;24.00;35.78;101487.91;5045092;28;20029;-42
2021/12/06 05:36:01;;;;;;;324.45;219.90;;;;;;;24.03;35.28;101486.22;5028060;28;20143;-42
2021/12/06 05:38:31;;;;;;;321.60;220.02;;;;;;;24.00;35.89;101486.16;5044246;28;20055;-43
2021/12/06 05:41:01;;;;;;;341.25;226.30;;;;;;;24.00;35.40;101477.41;5044456;28;20029;-43
2021/12/06 05:43:29;;;;;;;320.52;223.38;;;;;;;23.99;35.73;101458.19;5044602;28;20497;-43
2021/12/06 05:45:58;;;;;;;324.00;223.40;;;;;;;24.04;35.43;101477.50;5044465;28;20040;-43
2021/12/06 05:48:28;;;;;;;325.70;221.57;;;;;;;24.06;35.75;101474.94;5044532;28;20402;-42
2021/12/06 05:50:56;;;;;;;325.52;221.20;;;;;;;24.07;35.50;101474.09;5044909;28;20154;-45
2021/12/06 05:53:25;;;;;;;319.58;221.90;;;;;;;23.96;35.51;101482.59;5044846;28;20029;-42
2021/12/06 05:55:53;;;;;;;328.98;225.25;;;;;;;24.00;35.35;101472.19;5044316;28;20040;-45
2021/12/06 05:58:26;;;;;;;318.17;219.70;;;;;;;23.96;35.82;101479.06;5044309;28;20056;-42
2021/12/06 06:00:57;;;;;;;315.80;224.43;;;;;;;24.04;35.40;101461.78;5044476;28;20036;-42
2021/12/06 06:03:25;;;;;;;309.83;217.77;;;;;;;24.02;35.40;101453.00;5044562;28;20437;-42
2021/12/06 06:05:54;;;;;;;323.45;224.80;;;;;;;24.11;35.37;101444.44;5029411;28;20032;-42
2021/12/06 06:08:24;;;;;;;329.40;224.88;;;;;;;24.03;35.70;101441.66;5044081;28;20025;-43
2021/12/06 06:10:52;;;;;;;318.58;222.45;;;;;;;24.01;35.71;101432.88;5044069;28;20039;-42
2021/12/06 06:13:21;;;;;;;306.83;217.82;;;;;;;23.97;35.64;101437.19;5044217;28;20033;-42
2021/12/06 06:15:51;;;;;;;328.13;220.40;;;;;;;24.07;35.49;101430.41;5043801;28;20036;-42
2021/12/06 06:18:21;;;;;;;316.17;219.77;;;;;;;24.01;35.76;101421.53;5043929;28;20386;-43
2021/12/06 06:20:52;;;;;;;332.15;224.05;;;;;;;23.99;35.41;101423.22;5043751;28;20087;-44
2021/12/06 06:23:21;;;;;;;331.45;224.82;;;;;;;24.04;35.79;101422.47;5026523;28;20071;-43
2021/12/06 06:25:49;;;;;;;331.33;220.35;;;;;;;24.00;35.57;101425.88;5043826;28;20035;-43
2021/12/06 06:28:18;;;;;;;330.88;224.00;;;;;;;24.05;35.29;101419.00;5026204;28;20036;-43
2021/12/06 06:30:47;;;;;;;322.70;219.30;;;;;;;23.94;35.90;101417.88;5043928;28;20486;-43
2021/12/06 06:33:15;;;;;;;320.15;222.70;;;;;;;24.00;35.86;101423.25;5044006;28;20398;-43
2021/12/06 06:35:44;;;;;;;341.75;226.40;;;;;;;24.07;35.71;101417.28;5043943;28;20029;-42
2021/12/06 06:38:12;;;;;;;314.02;218.50;;;;;;;24.03;35.44;101411.97;5043895;28;20037;-43
2021/12/06 06:40:41;;;;;;;334.27;227.35;;;;;;;23.99;35.84;101413.66;5043419;28;20486;-43
2021/12/06 06:43:09;;;;;;;321.30;221.88;;;;;;;24.00;35.87;101404.91;5043634;28;20043;-43
2021/12/06 06:45:38;;;;;;;321.45;222.27;;;;;;;23.98;35.94;101409.25;5044028;28;20031;-42
2021/12/06 06:48:07;;;;;;;329.90;223.60;;;;;;;24.02;35.66;101404.97;5043763;28;20035;-43
2021/12/06 06:50:35;;;;;;;343.65;232.65;;;;;;;24.08;35.36;101407.69;5025685;28;20032;-44
2021/12/06 06:53:04;;;;;;;330.77;230.75;;;;;;;23.97;35.73;101404.88;5043209;28;20075;-43
2021/12/06 06:55:33;;;;;;;333.80;229.05;;;;;;;23.99;35.63;101399.66;5043439;28;20024;-43
2021/12/06 06:58:01;;;;;;;329.23;226.25;;;;;;;23.97;35.95;101403.13;5043258;28;20441;-42
2021/12/06 07:00:36;;;;;;;326.88;227.20;;;;;;;23.98;35.56;101396.16;5043346;28;20028;-43
2021/12/06 07:03:06;;;;;;;327.88;231.52;;;;;;;24.05;35.87;101392.78;5043712;28;20052;-43
2021/12/06 07:05:36;;;;;;;335.33;226.95;;;;;;;24.08;35.88;101385.00;5043619;28;20422;-43
2021/12/06 07:08:04;;;;;;;335.45;228.88;;;;;;;24.07;35.65;101385.84;5043362;28;20098;-43
2021/12/06 07:10:32;;;;;;;339.80;232.65;;;;;;;24.13;35.83;101371.97;5043397;28;20076;-44
2021/12/06 07:13:04;;;;;;;338.90;229.55;;;;;;;24.02;35.87;101370.88;5043005;28;20138;-48
2021/12/06 07:15:35;;;;;;;344.42;233.10;;;;;;;24.08;35.55;101365.75;5010391;28;20102;-45
2021/12/06 07:18:05;;;;;;;335.58;230.35;;;;;;;24.12;35.57;101367.56;5042416;28;20043;-45
2021/12/06 07:20:34;;;;;;;329.42;227.23;;;;;;;24.03;35.57;101362.19;5025122;28;20059;-42
2021/12/06 07:23:03;;;;;;;329.73;224.45;;;;;;;24.00;35.77;101364.72;5031123;28;20398;-44
2021/12/06 07:25:31;;;;;;;319.13;219.80;;;;;;;23.89;35.76;101360.16;5049818;28;20056;-44
2021/12/06 07:28:02;;;;;;;321.05;219.05;;;;;;;24.06;35.59;101351.75;5049920;28;20066;-43
2021/12/06 07:30:29;;;;;;;310.98;213.52;;;;;;;24.10;35.77;101343.97;5049682;28;20123;-48
2021/12/06 07:32:58;;;;;;;305.30;209.60;;;;;;;24.20;35.16;101338.88;5049475;28;20032;-48
2021/12/06 07:35:29;;;;;;;294.33;204.88;;;;;;;24.25;35.16;101337.25;5049744;28;20037;-46
2021/12/06 07:37:59;;;;;;;311.50;205.80;;;;;;;24.19;35.28;101331.88;5049636;28;20029;-43
2021/12/06 07:40:28;;;;;;;300.75;200.65;;;;;;;24.22;35.29;101330.22;5049701;28;20039;-46
2021/12/06 07:42:56;;;;;;;294.65;196.95;;;;;;;24.18;35.54;101322.25;5049985;28;20119;-46
2021/12/06 07:45:25;;;;;;;289.80;196.32;;;;;;;24.18;35.32;101320.53;5049099;28;20045;-44
2021/12/06 07:47:53;;;;;;;278.70;188.45;;;;;;;24.16;35.38;101316.97;5030785;28;20035;-45
2021/12/06 07:50:22;;;;;;;275.60;190.50;;;;;;;24.15;35.37;101311.72;5049331;28;20029;-44
2021/12/06 07:52:51;;;;;;;290.00;192.15;;;;;;;24.18;35.19;101311.75;5049298;28;20482;-47
2021/12/06 07:55:22;;;;;;;286.73;192.48;;;;;;;24.11;35.41;101308.16;5049848;28;20405;-43
2021/12/06 07:57:52;;;;;;;279.27;188.50;;;;;;;24.25;35.27;101316.25;5049423;28;20036;-44
2021/12/06 08:00:23;;;;;;;277.10;188.68;;;;;;;24.22;34.99;101313.59;5032302;28;20037;-43
2021/12/06 08:02:52;;;;;;;275.83;187.25;;;;;;;24.20;35.27;101313.56;5049573;28;20028;-43
2021/12/06 08:05:30;;;;;;;283.95;189.63;;;;;;;24.17;35.14;101310.88;5049611;28;20065;-43
2021/12/06 08:08:18;;;;;;;281.70;190.13;;;;;;;24.28;35.21;101301.47;5049137;28;20073;-43
2021/12/06 08:10:48;;;;;;;277.17;185.02;;;;;;;24.31;35.18;101295.41;5045131;28;20043;-42
2021/12/06 08:13:18;;;;;;;276.77;179.85;;;;;;;24.31;35.14;101298.03;5031333;28;20116;-43
2021/12/06 08:15:47;;;;;;;284.80;184.90;;;;;;;24.32;35.29;101302.41;5049250;28;20060;-43
2021/12/06 08:18:16;;;;;;;264.13;177.75;;;;;;;24.36;34.93;101296.34;5031854;28;20120;-43
2021/12/06 08:20:45;;;;;;;275.73;179.48;;;;;;;24.30;34.97;101296.25;5049087;28;20140;-44
2021/12/06 08:23:13;;;;;;;271.38;180.20;;;;;;;24.26;35.32;101292.69;5049597;28;20020;-44
2021/12/06 08:25:43;;;;;;;264.23;174.65;;;;;;;24.30;35.05;101288.41;5049450;28;20028;-42
2021/12/06 08:28:15;;;;;;;264.60;178.48;;;;;;;24.36;35.11;101280.63;4999357;28;20061;-44
2021/12/06 08:30:44;;;;;;;262.83;171.75;;;;;;;24.39;35.33;101270.19;5048792;28;20029;-44
2021/12/06 08:33:13;;;;;;;263.33;170.77;;;;;;;24.36;34.91;101264.88;5047389;28;20120;-43
2021/12/06 08:35:45;;;;;;;263.77;173.23;;;;;;;24.37;34.97;101265.78;5045842;28;20021;-43
2021/12/06 08:38:17;;;;;;;273.65;175.38;;;;;;;24.39;35.33;101264.94;5028269;28;20040;-43
2021/12/06 08:40:45;;;;;;;257.70;168.70;;;;;;;24.37;35.08;101264.03;5045735;28;20037;-43
2021/12/06 08:43:17;;;;;;;251.82;167.40;;;;;;;24.37;34.90;101261.41;5046155;28;20043;-43
2021/12/06 08:45:52;;;;;;;264.10;170.55;;;;;;;24.41;35.04;101255.34;5028225;28;20040;-43
2021/12/06 08:48:22;;;;;;;250.10;168.02;;;;;;;24.37;35.18;101247.44;5046134;28;20033;-42
2021/12/06 08:50:51;;;;;;;263.13;167.63;;;;;;;24.39;35.25;101249.19;5045953;28;20390;-42
2021/12/06 08:53:20;;;;;;;248.77;166.15;;;;;;;24.35;35.04;101233.41;5046094;28;20020;-41
2021/12/06 08:55:49;;;;;;;251.38;164.20;;;;;;;24.37;35.13;101224.69;5045911;28;20029;-41
2021/12/06 08:58:17;;;;;;;248.73;159.65;;;;;;;24.31;35.15;101221.09;5045317;28;20037;-42
2021/12/06 09:00:45;;;;;;;237.20;156.68;;;;;;;24.35;35.02;101209.81;5045302;28;20029;-42
2021/12/06 09:03:14;;;;;;;244.65;157.45;;;;;;;24.35;35.23;101197.56;5045104;28;20068;-43
2021/12/06 09:05:46;;;;;;;244.70;156.45;;;;;;;24.31;35.12;101184.38;5045548;28;20033;-43
2021/12/06 09:08:15;;;;;;;224.93;150.95;;;;;;;24.23;35.49;101194.75;5028293;28;20024;-43
2021/12/06 09:10:47;;;;;;;230.02;154.82;;;;;;;24.25;35.35;101200.91;5027626;28;21171;-43
2021/12/06 09:13:15;;;;;;;224.70;146.57;;;;;;;24.27;35.36;101178.22;5045537;28;20212;-42
2021/12/06 09:15:44;;;;;;;216.18;141.75;;;;;;;24.24;35.42;101176.41;5045206;28;20044;-43
2021/12/06 09:18:13;;;;;;;228.50;146.73;;;;;;;24.36;34.71;101177.47;5045080;28;20064;-42
2021/12/06 09:20:45;;;;;;;222.70;143.13;;;;;;;24.37;34.96;101179.25;5044782;28;20049;-42
2021/12/06 09:23:15;;;;;;;220.98;143.02;;;;;;;24.32;35.10;101187.06;5027238;28;20437;-41
2021/12/06 09:25:45;;;;;;;216.93;140.13;;;;;;;24.31;34.91;101192.25;5027404;28;20457;-43
2021/12/06 09:28:14;;;;;;;219.65;144.98;;;;;;;24.27;35.06;101189.59;5045224;28;20036;-46
2021/12/06 09:30:44;;;;;;;220.98;142.25;;;;;;;24.37;34.98;101189.75;5045395;28;20044;-42
2021/12/06 09:33:14;;;;;;;224.73;144.23;;;;;;;24.38;34.90;101192.38;5027854;28;20057;-43
2021/12/06 09:35:45;;;;;;;208.85;138.88;;;;;;;24.23;35.15;101184.28;5045031;28;20036;-42
2021/12/06 09:38:17;;;;;;;203.20;135.07;;;;;;;24.30;35.29;101165.16;5044653;28;20149;-42
2021/12/06 09:40:52;;;;;;;214.73;134.95;;;;;;;24.35;34.92;101158.22;5044026;28;20502;-42
2021/12/06 09:43:21;;;;;;;205.40;135.65;;;;;;;24.35;34.81;101158.22;5044916;28;20037;-42
2021/12/06 09:45:50;;;;;;;207.52;134.50;;;;;;;24.42;35.07;101161.81;5044488;28;20043;-42
2021/12/06 09:48:20;;;;;;;210.18;134.32;;;;;;;24.37;34.76;101148.66;5044824;28;20060;-42
2021/12/06 09:50:54;;;;;;;221.05;138.50;;;;;;;24.50;34.58;101146.19;5044671;28;20470;-43
2021/12/06 09:53:28;;;;;;;209.90;132.32;;;;;;;24.37;35.19;101155.66;5044852;28;20095;-44
2021/12/06 09:56:02;;;;;;;211.73;134.10;;;;;;;24.18;35.45;101128.28;5044351;28;20102;-43
2021/12/06 09:58:30;;;;;;;211.90;136.48;;;;;;;24.25;35.39;101135.38;5044362;28;20059;-43
2021/12/06 10:01:03;;;;;;;213.40;134.68;;;;;;;24.30;35.28;101136.34;5044440;28;20461;-42
2021/12/06 10:03:33;;;;;;;210.15;133.68;;;;;;;24.31;35.36;101138.09;5044232;28;20393;-42
2021/12/06 10:06:04;;;;;;;206.10;133.52;;;;;;;24.27;35.11;101128.41;5044543;28;20029;-43
2021/12/06 10:08:35;;;;;;;210.90;137.93;;;;;;;24.41;35.05;101134.72;5026644;28;20028;-42
2021/12/06 10:11:06;;;;;;;208.32;133.70;;;;;;;24.39;34.97;101122.47;5043614;28;20086;-42
2021/12/06 10:13:35;;;;;;;217.00;134.05;;;;;;;24.45;35.20;101122.53;5044204;28;20032;-43
2021/12/06 10:16:04;;;;;;;210.63;130.98;;;;;;;24.53;34.51;101109.53;5042771;28;20029;-44
2021/12/06 10:18:32;;;;;;;197.70;125.90;;;;;;;24.55;34.55;101099.94;5043331;28;20128;-43
2021/12/06 10:21:02;;;;;;;186.52;117.18;;;;;;;24.38;34.53;101095.34;5043519;28;21211;-41
2021/12/06 10:23:31;;;;;;;171.60;112.85;;;;;;;24.26;35.26;101090.81;5043890;28;20475;-42
2021/12/06 10:25:59;;;;;;;173.13;113.10;;;;;;;24.33;34.97;101083.91;5043930;28;20126;-42
2021/12/06 10:28:30;;;;;;;165.05;106.15;;;;;;;24.19;35.30;101073.25;5043928;28;20836;-44
2021/12/06 10:31:08;;;;;;;168.93;106.05;;;;;;;24.19;34.98;101059.25;5043885;28;20045;-43
2021/12/06 10:33:43;;;;;;;159.02;102.90;;;;;;;24.25;34.94;101057.59;5043656;28;20029;-42
2021/12/06 10:36:15;;;;;;;162.20;103.20;;;;;;;24.45;34.51;101054.34;5026484;28;21194;-43
2021/12/06 10:38:51;;;;;;;154.98;99.65;;;;;;;24.34;34.72;101056.84;5043625;28;20051;-42
2021/12/06 10:41:22;;;;;;;157.77;99.80;;;;;;;24.37;34.64;101059.50;5043909;28;20492;-42
2021/12/06 10:43:56;;;;;;;146.43;93.68;;;;;;;24.32;35.10;101055.06;5043678;28;20175;-42
2021/12/06 10:46:25;;;;;;;137.10;93.45;;;;;;;24.30;35.04;101068.16;5043692;28;20483;-42
2021/12/06 10:48:57;;;;;;;153.32;95.70;;;;;;;24.43;34.85;101049.09;5043362;28;20033;-41
2021/12/06 10:51:26;;;;;;;143.35;95.72;;;;;;;24.35;35.09;101037.63;5043535;28;20029;-42
2021/12/06 10:54:04;;;;;;;150.13;96.28;;;;;;;24.37;35.00;101040.28;5043710;28;20117;-42
2021/12/06 10:56:42;;;;;;;153.88;99.90;;;;;;;24.43;34.51;101027.22;5042857;28;20029;-42
2021/12/06 10:59:21;;;;;;;143.02;91.82;;;;;;;24.45;34.92;101022.91;5043303;28;20029;-42
2021/12/06 11:01:52;;;;;;;137.00;89.22;;;;;;;24.40;34.76;101027.22;5042952;28;20075;-42
2021/12/06 11:04:24;;;;;;;135.10;88.50;;;;;;;24.39;35.17;101021.09;5029383;28;20033;-41
2021/12/06 11:06:54;;;;;;;129.50;83.28;;;;;;;24.45;34.90;101020.28;5043435;28;20493;-41
2021/12/06 11:09:26;;;;;;;134.38;84.28;;;;;;;24.40;34.95;101009.72;5043026;28;20086;-42
2021/12/06 11:11:58;;;;;;;138.93;87.20;;;;;;;24.45;35.14;100993.19;5043653;28;20028;-42
2021/12/06 11:14:31;;;;;;;133.02;84.45;;;;;;;24.47;34.66;100976.59;5025367;28;20029;-44
2021/12/06 11:17:04;;;;;;;132.38;88.47;;;;;;;24.44;34.74;100971.31;5042950;28;20475;-42
2021/12/06 11:19:33;;;;;;;134.70;83.75;;;;;;;24.42;34.59;100955.56;5025404;28;20052;-43
2021/12/06 11:22:05;;;;;;;133.80;84.85;;;;;;;24.57;34.79;100974.94;5043100;28;20049;-43
2021/12/06 11:24:48;;;;;;;116.88;80.25;;;;;;;24.57;34.67;100952.22;5043206;28;20394;-42
2021/12/06 11:27:22;;;;;;;124.80;82.00;;;;;;;24.44;34.72;100955.56;5043505;28;20048;-42